sensor_id;sensor_type;location;lat;lon;timestamp;pressure;altitude;pressure_sealevel;temperature;humidity
47983;BME280;33751;50.816;-1.214;2023-04-22T00:02:06;100694.07;;;26.24;100.00
47983;BME280;33751;50.816;-1.214;2023-04-22T00:04:33;100692.45;;;26.06;100.00
47983;BME280;33751;50.816;-1.214;2023-04-22T00:07:00;100689.68;;;26.08;100.00
47983;BME280;33751;50.816;-1.214;2023-04-22T00:09:27;100684.71;;;26.09;100.00
47983;BME280;33751;50.816;-1.214;2023-04-22T00:11:53;100681.87;;;26.07;100.00
47983;BME280;33751;50.816;-1.214;2023-04-22T00:14:21;100681.67;;;25.81;100.00
47983;BME280;33751;50.816;-1.214;2023-04-22T00:16:48;100678.08;;;26.27;100.00
47983;BME280;33751;50.816;-1.214;2023-04-22T00:19:15;100676.42;;;26.02;100.00
47983;BME280;33751;50.816;-1.214;2023-04-22T00:21:42;100674.52;;;25.98;100.00
47983;BME280;33751;50.816;-1.214;2023-04-22T00:24:08;100672.26;;;26.21;100.00
47983;BME280;33751;50.816;-1.214;2023-04-22T00:26:35;100669.70;;;26.20;100.00
47983;BME280;33751;50.816;-1.214;2023-04-22T00:29:03;100665.75;;;26.41;100.00
47983;BME280;33751;50.816;-1.214;2023-04-22T00:31:29;100662.02;;;26.33;100.00
47983;BME280;33751;50.816;-1.214;2023-04-22T00:33:57;100659.94;;;25.86;100.00
47983;BME280;33751;50.816;-1.214;2023-04-22T00:36:24;100657.15;;;25.88;100.00
47983;BME280;33751;50.816;-1.214;2023-04-22T00:38:51;100656.18;;;26.36;100.00
47983;BME280;33751;50.816;-1.214;2023-04-22T00:41:18;100654.43;;;26.10;100.00
47983;BME280;33751;50.816;-1.214;2023-04-22T00:43:45;100648.95;;;26.33;100.00
47983;BME280;33751;50.816;-1.214;2023-04-22T00:46:14;100648.29;;;26.34;100.00
47983;BME280;33751;50.816;-1.214;2023-04-22T00:48:41;100643.73;;;26.05;100.00
47983;BME280;33751;50.816;-1.214;2023-04-22T00:51:09;100643.59;;;26.22;100.00
47983;BME280;33751;50.816;-1.214;2023-04-22T00:53:35;100641.27;;;26.05;100.00
47983;BME280;33751;50.816;-1.214;2023-04-22T00:56:02;100642.31;;;26.32;100.00
47983;BME280;33751;50.816;-1.214;2023-04-22T00:58:30;100642.07;;;25.81;100.00
47983;BME280;33751;50.816;-1.214;2023-04-22T01:00:57;100640.20;;;26.03;100.00
47983;BME280;33751;50.816;-1.214;2023-04-22T01:03:25;100634.27;;;26.25;100.00
47983;BME280;33751;50.816;-1.214;2023-04-22T01:05:53;100632.14;;;25.97;100.00
47983;BME280;33751;50.816;-1.214;2023-04-22T01:08:20;100632.86;;;25.75;100.00
47983;BME280;33751;50.816;-1.214;2023-04-22T01:10:47;100628.90;;;25.72;100.00
47983;BME280;33751;50.816;-1.214;2023-04-22T01:13:14;100626.37;;;26.18;100.00
47983;BME280;33751;50.816;-1.214;2023-04-22T01:15:40;100621.92;;;25.88;100.00
47983;BME280;33751;50.816;-1.214;2023-04-22T01:18:08;100620.12;;;26.14;100.00
47983;BME280;33751;50.816;-1.214;2023-04-22T01:20:35;100614.73;;;26.08;100.00
47983;BME280;33751;50.816;-1.214;2023-04-22T01:23:03;100613.35;;;25.84;100.00
47983;BME280;33751;50.816;-1.214;2023-04-22T01:25:32;100611.48;;;26.06;100.00
47983;BME280;33751;50.816;-1.214;2023-04-22T01:27:59;100611.31;;;26.09;100.00
47983;BME280;33751;50.816;-1.214;2023-04-22T01:30:27;100615.98;;;26.06;100.00
47983;BME280;33751;50.816;-1.214;2023-04-22T01:32:53;100616.65;;;26.04;100.00
47983;BME280;33751;50.816;-1.214;2023-04-22T01:35:21;100614.89;;;25.80;100.00
47983;BME280;33751;50.816;-1.214;2023-04-22T01:37:48;100613.17;;;25.75;100.00
47983;BME280;33751;50.816;-1.214;2023-04-22T01:40:18;100610.14;;;26.01;100.00
47983;BME280;33751;50.816;-1.214;2023-04-22T01:42:47;100608.08;;;26.03;100.00
47983;BME280;33751;50.816;-1.214;2023-04-22T01:45:14;100606.99;;;26.04;100.00
47983;BME280;33751;50.816;-1.214;2023-04-22T01:47:40;100606.99;;;25.74;100.00
47983;BME280;33751;50.816;-1.214;2023-04-22T01:50:08;100601.74;;;25.89;100.00
47983;BME280;33751;50.816;-1.214;2023-04-22T01:52:35;100595.55;;;25.65;100.00
47983;BME280;33751;50.816;-1.214;2023-04-22T01:55:03;100590.83;;;25.94;100.00
47983;BME280;33751;50.816;-1.214;2023-04-22T01:57:30;100588.03;;;25.89;100.00
47983;BME280;33751;50.816;-1.214;2023-04-22T01:59:56;100583.25;;;25.62;100.00
47983;BME280;33751;50.816;-1.214;2023-04-22T02:02:23;100583.06;;;25.58;100.00
47983;BME280;33751;50.816;-1.214;2023-04-22T02:04:50;100585.81;;;25.85;100.00
47983;BME280;33751;50.816;-1.214;2023-04-22T02:07:17;100582.78;;;25.84;100.00
47983;BME280;33751;50.816;-1.214;2023-04-22T02:09:44;100581.40;;;25.57;100.00
47983;BME280;33751;50.816;-1.214;2023-04-22T02:12:11;100581.27;;;25.70;100.00
47983;BME280;33751;50.816;-1.214;2023-04-22T02:14:38;100578.99;;;25.50;100.00
47983;BME280;33751;50.816;-1.214;2023-04-22T02:17:04;100576.35;;;25.23;100.00
47983;BME280;33751;50.816;-1.214;2023-04-22T02:19:32;100579.94;;;25.21;100.00
47983;BME280;33751;50.816;-1.214;2023-04-22T02:21:59;100584.75;;;25.06;100.00
47983;BME280;33751;50.816;-1.214;2023-04-22T02:24:27;100580.36;;;25.02;100.00
47983;BME280;33751;50.816;-1.214;2023-04-22T02:26:54;100574.73;;;24.92;100.00
47983;BME280;33751;50.816;-1.214;2023-04-22T02:29:21;100572.29;;;24.91;100.00
47983;BME280;33751;50.816;-1.214;2023-04-22T02:31:48;100575.89;;;24.61;100.00
47983;BME280;33751;50.816;-1.214;2023-04-22T02:34:14;100573.62;;;24.79;100.00
47983;BME280;33751;50.816;-1.214;2023-04-22T02:36:41;100572.49;;;24.64;100.00
47983;BME280;33751;50.816;-1.214;2023-04-22T02:39:07;100572.33;;;24.79;100.00
47983;BME280;33751;50.816;-1.214;2023-04-22T02:41:34;100572.47;;;24.82;100.00
47983;BME280;33751;50.816;-1.214;2023-04-22T02:44:00;100574.27;;;24.73;100.00
47983;BME280;33751;50.816;-1.214;2023-04-22T02:46:27;100576.71;;;24.74;100.00
47983;BME280;33751;50.816;-1.214;2023-04-22T02:48:55;100573.20;;;24.67;100.00
47983;BME280;33751;50.816;-1.214;2023-04-22T02:51:22;100569.69;;;24.65;100.00
47983;BME280;33751;50.816;-1.214;2023-04-22T02:53:49;100569.60;;;24.56;100.00
47983;BME280;33751;50.816;-1.214;2023-04-22T02:56:15;100568.62;;;24.80;100.00
47983;BME280;33751;50.816;-1.214;2023-04-22T02:58:42;100570.51;;;24.61;100.00
47983;BME280;33751;50.816;-1.214;2023-04-22T03:01:09;100570.38;;;24.55;100.00
47983;BME280;33751;50.816;-1.214;2023-04-22T03:03:36;100567.42;;;24.59;100.00
47983;BME280;33751;50.816;-1.214;2023-04-22T03:06:03;100567.19;;;24.57;100.00
47983;BME280;33751;50.816;-1.214;2023-04-22T03:08:30;100562.82;;;24.59;100.00
47983;BME280;33751;50.816;-1.214;2023-04-22T03:10:56;100559.27;;;24.84;100.00
47983;BME280;33751;50.816;-1.214;2023-04-22T03:13:23;100557.52;;;24.40;100.00
47983;BME280;33751;50.816;-1.214;2023-04-22T03:15:49;100553.43;;;24.58;100.00
47983;BME280;33751;50.816;-1.214;2023-04-22T03:18:17;100550.61;;;25.04;100.00
47983;BME280;33751;50.816;-1.214;2023-04-22T03:20:43;100545.14;;;24.76;100.00
47983;BME280;33751;50.816;-1.214;2023-04-22T03:23:10;100540.61;;;24.78;100.00
47983;BME280;33751;50.816;-1.214;2023-04-22T03:25:36;100536.70;;;24.72;100.00
47983;BME280;33751;50.816;-1.214;2023-04-22T03:28:03;100534.59;;;24.46;100.00
47983;BME280;33751;50.816;-1.214;2023-04-22T03:30:30;100534.52;;;24.44;100.00
47983;BME280;33751;50.816;-1.214;2023-04-22T03:32:58;100536.37;;;24.38;100.00
47983;BME280;33751;50.816;-1.214;2023-04-22T03:35:25;100533.84;;;24.35;100.00
47983;BME280;33751;50.816;-1.214;2023-04-22T03:37:51;100531.69;;;24.65;100.00
47983;BME280;33751;50.816;-1.214;2023-04-22T03:40:18;100533.37;;;24.30;100.00
47983;BME280;33751;50.816;-1.214;2023-04-22T03:42:45;100533.80;;;24.36;100.00
47983;BME280;33751;50.816;-1.214;2023-04-22T03:45:12;100533.57;;;24.60;100.00
47983;BME280;33751;50.816;-1.214;2023-04-22T03:47:39;100535.08;;;24.33;100.00
47983;BME280;33751;50.816;-1.214;2023-04-22T03:50:06;100536.94;;;24.34;100.00
47983;BME280;33751;50.816;-1.214;2023-04-22T03:52:33;100533.47;;;24.27;100.00
47983;BME280;33751;50.816;-1.214;2023-04-22T03:54:59;100529.96;;;24.54;100.00
47983;BME280;33751;50.816;-1.214;2023-04-22T03:57:26;100531.52;;;24.69;100.00
47983;BME280;33751;50.816;-1.214;2023-04-22T03:59:52;100532.37;;;24.48;100.00
47983;BME280;33751;50.816;-1.214;2023-04-22T04:02:19;100529.13;;;24.17;100.00
47983;BME280;33751;50.816;-1.214;2023-04-22T04:04:45;100525.18;;;24.36;100.00
47983;BME280;33751;50.816;-1.214;2023-04-22T04:07:12;100521.60;;;24.57;100.00
47983;BME280;33751;50.816;-1.214;2023-04-22T04:09:39;100520.93;;;24.17;100.00
47983;BME280;33751;50.816;-1.214;2023-04-22T04:12:06;100515.36;;;24.16;100.00
47983;BME280;33751;50.816;-1.214;2023-04-22T04:14:33;100514.63;;;24.13;100.00
47983;BME280;33751;50.816;-1.214;2023-04-22T04:17:00;100513.18;;;24.33;100.00
47983;BME280;33751;50.816;-1.214;2023-04-22T04:19:27;100509.73;;;24.29;100.00
47983;BME280;33751;50.816;-1.214;2023-04-22T04:21:53;100506.21;;;24.49;100.00
47983;BME280;33751;50.816;-1.214;2023-04-22T04:24:20;100502.49;;;23.94;100.00
47983;BME280;33751;50.816;-1.214;2023-04-22T04:26:47;100504.23;;;24.26;100.00
47983;BME280;33751;50.816;-1.214;2023-04-22T04:29:13;100504.78;;;24.53;100.00
47983;BME280;33751;50.816;-1.214;2023-04-22T04:31:40;100504.54;;;24.47;100.00
47983;BME280;33751;50.816;-1.214;2023-04-22T04:34:07;100504.28;;;23.96;100.00
47983;BME280;33751;50.816;-1.214;2023-04-22T04:36:34;100503.70;;;23.98;100.00
47983;BME280;33751;50.816;-1.214;2023-04-22T04:39:01;100507.25;;;24.22;100.00
47983;BME280;33751;50.816;-1.214;2023-04-22T04:41:27;100501.87;;;24.20;100.00
47983;BME280;33751;50.816;-1.214;2023-04-22T04:43:54;100503.45;;;24.22;100.00
47983;BME280;33751;50.816;-1.214;2023-04-22T04:46:20;100503.81;;;23.96;100.00
47983;BME280;33751;50.816;-1.214;2023-04-22T04:48:47;100502.56;;;24.18;100.00
47983;BME280;33751;50.816;-1.214;2023-04-22T04:51:13;100499.89;;;23.81;100.00
47983;BME280;33751;50.816;-1.214;2023-04-22T04:53:40;100494.89;;;24.24;100.00
47983;BME280;33751;50.816;-1.214;2023-04-22T04:56:07;100491.38;;;23.90;100.00
47983;BME280;33751;50.816;-1.214;2023-04-22T04:58:34;100488.03;;;23.93;100.00
47983;BME280;33751;50.816;-1.214;2023-04-22T05:01:01;100486.62;;;24.39;100.00
47983;BME280;33751;50.816;-1.214;2023-04-22T05:03:28;100485.60;;;24.16;100.00
47983;BME280;33751;50.816;-1.214;2023-04-22T05:05:55;100484.88;;;23.86;100.00
47983;BME280;33751;50.816;-1.214;2023-04-22T05:08:22;100481.16;;;23.82;100.00
47983;BME280;33751;50.816;-1.214;2023-04-22T05:10:48;100482.68;;;23.79;100.00
47983;BME280;33751;50.816;-1.214;2023-04-22T05:13:15;100480.34;;;23.81;100.00
47983;BME280;33751;50.816;-1.214;2023-04-22T05:15:41;100475.98;;;23.72;100.00
47983;BME280;33751;50.816;-1.214;2023-04-22T05:18:09;100473.91;;;24.00;100.00
47983;BME280;33751;50.816;-1.214;2023-04-22T05:20:35;100473.41;;;24.05;100.00
47983;BME280;33751;50.816;-1.214;2023-04-22T05:23:02;100471.45;;;24.30;100.00
47983;BME280;33751;50.816;-1.214;2023-04-22T05:25:28;100464.94;;;24.07;100.00
47983;BME280;33751;50.816;-1.214;2023-04-22T05:27:55;100458.34;;;24.34;100.00
47983;BME280;33751;50.816;-1.214;2023-04-22T05:30:22;100458.66;;;23.87;100.00
47983;BME280;33751;50.816;-1.214;2023-04-22T05:32:49;100462.40;;;24.30;100.00
47983;BME280;33751;50.816;-1.214;2023-04-22T05:35:17;100467.57;;;24.12;100.00
47983;BME280;33751;50.816;-1.214;2023-04-22T05:37:44;100473.69;;;24.12;100.00
47983;BME280;33751;50.816;-1.214;2023-04-22T05:40:11;100475.79;;;24.43;100.00
47983;BME280;33751;50.816;-1.214;2023-04-22T05:42:38;100471.26;;;23.81;100.00
47983;BME280;33751;50.816;-1.214;2023-04-22T05:45:06;100466.60;;;24.07;100.00
47983;BME280;33751;50.816;-1.214;2023-04-22T05:47:33;100464.00;;;24.23;100.00
47983;BME280;33751;50.816;-1.214;2023-04-22T05:50:00;100464.11;;;24.42;100.00
47983;BME280;33751;50.816;-1.214;2023-04-22T05:52:26;100467.41;;;24.57;100.00
47983;BME280;33751;50.816;-1.214;2023-04-22T05:54:53;100470.66;;;24.64;100.00
47983;BME280;33751;50.816;-1.214;2023-04-22T05:57:19;100472.83;;;24.42;100.00
47983;BME280;33751;50.816;-1.214;2023-04-22T05:59:46;100476.01;;;24.57;100.00
47983;BME280;33751;50.816;-1.214;2023-04-22T06:02:13;100472.70;;;25.18;100.00
47983;BME280;33751;50.816;-1.214;2023-04-22T06:04:40;100473.35;;;25.27;100.00
47983;BME280;33751;50.816;-1.214;2023-04-22T06:07:07;100480.05;;;25.10;100.00
47983;BME280;33751;50.816;-1.214;2023-04-22T06:09:33;100482.73;;;25.40;100.00
47983;BME280;33751;50.816;-1.214;2023-04-22T06:12:00;100482.58;;;25.17;100.00
47983;BME280;33751;50.816;-1.214;2023-04-22T06:14:27;100484.38;;;25.30;100.00
47983;BME280;33751;50.816;-1.214;2023-04-22T06:16:53;100482.53;;;25.68;100.00
47983;BME280;33751;50.816;-1.214;2023-04-22T06:19:20;100482.97;;;25.39;100.00
47983;BME280;33751;50.816;-1.214;2023-04-22T06:21:46;100482.88;;;25.58;100.00
47983;BME280;33751;50.816;-1.214;2023-04-22T06:24:13;100481.50;;;25.63;100.00
47983;BME280;33751;50.816;-1.214;2023-04-22T06:26:40;100486.24;;;25.73;100.00
47983;BME280;33751;50.816;-1.214;2023-04-22T06:29:07;100490.96;;;25.13;100.00
47983;BME280;33751;50.816;-1.214;2023-04-22T06:31:33;100491.29;;;25.56;100.00
47983;BME280;33751;50.816;-1.214;2023-04-22T06:34:00;100493.58;;;25.63;100.00
47983;BME280;33751;50.816;-1.214;2023-04-22T06:36:26;100494.59;;;25.32;100.00
47983;BME280;33751;50.816;-1.214;2023-04-22T06:38:53;100493.92;;;25.12;100.00
47983;BME280;33751;50.816;-1.214;2023-04-22T06:41:20;100492.61;;;24.66;100.00
47983;BME280;33751;50.816;-1.214;2023-04-22T06:43:47;100494.30;;;25.05;100.00
47983;BME280;33751;50.816;-1.214;2023-04-22T06:46:15;100491.04;;;25.83;100.00
47983;BME280;33751;50.816;-1.214;2023-04-22T06:48:41;100487.64;;;25.45;100.00
47983;BME280;33751;50.816;-1.214;2023-04-22T06:51:09;100485.97;;;25.62;100.00
47983;BME280;33751;50.816;-1.214;2023-04-22T06:53:36;100482.39;;;25.66;100.00
47983;BME280;33751;50.816;-1.214;2023-04-22T06:56:03;100480.96;;;25.79;100.00
47983;BME280;33751;50.816;-1.214;2023-04-22T06:58:30;100474.39;;;25.53;100.00
47983;BME280;33751;50.816;-1.214;2023-04-22T07:00:56;100472.91;;;25.87;100.00
47983;BME280;33751;50.816;-1.214;2023-04-22T07:03:23;100478.65;;;25.73;100.00
47983;BME280;33751;50.816;-1.214;2023-04-22T07:05:50;100481.76;;;25.81;100.00
47983;BME280;33751;50.816;-1.214;2023-04-22T07:08:17;100485.47;;;26.34;100.00
47983;BME280;33751;50.816;-1.214;2023-04-22T07:10:44;100491.83;;;26.34;100.00
47983;BME280;33751;50.816;-1.214;2023-04-22T07:13:11;100486.64;;;26.39;100.00
47983;BME280;33751;50.816;-1.214;2023-04-22T07:15:37;100474.93;;;26.26;100.00
47983;BME280;33751;50.816;-1.214;2023-04-22T07:18:04;100473.39;;;26.35;100.00
47983;BME280;33751;50.816;-1.214;2023-04-22T07:20:31;100479.26;;;26.37;100.00
47983;BME280;33751;50.816;-1.214;2023-04-22T07:22:58;100477.23;;;26.20;100.00
47983;BME280;33751;50.816;-1.214;2023-04-22T07:25:24;100478.30;;;26.35;100.00
47983;BME280;33751;50.816;-1.214;2023-04-22T07:27:51;100484.57;;;26.52;100.00
47983;BME280;33751;50.816;-1.214;2023-04-22T07:30:19;100483.70;;;26.54;100.00
47983;BME280;33751;50.816;-1.214;2023-04-22T07:32:45;100479.44;;;26.16;100.00
47983;BME280;33751;50.816;-1.214;2023-04-22T07:35:12;100476.20;;;26.55;100.00
47983;BME280;33751;50.816;-1.214;2023-04-22T07:37:39;100473.83;;;26.62;100.00
47983;BME280;33751;50.816;-1.214;2023-04-22T07:40:06;100476.63;;;26.58;100.00
47983;BME280;33751;50.816;-1.214;2023-04-22T07:42:33;100478.03;;;26.66;100.00
47983;BME280;33751;50.816;-1.214;2023-04-22T07:45:00;100478.42;;;26.61;100.00
47983;BME280;33751;50.816;-1.214;2023-04-22T07:47:26;100476.91;;;26.31;100.00
47983;BME280;33751;50.816;-1.214;2023-04-22T07:49:53;100476.88;;;26.81;100.00
47983;BME280;33751;50.816;-1.214;2023-04-22T07:52:20;100475.43;;;26.55;100.00
47983;BME280;33751;50.816;-1.214;2023-04-22T07:54:47;100471.67;;;26.58;100.00
47983;BME280;33751;50.816;-1.214;2023-04-22T07:57:13;100471.48;;;26.76;100.00
47983;BME280;33751;50.816;-1.214;2023-04-22T07:59:40;100473.64;;;27.27;100.00
47983;BME280;33751;50.816;-1.214;2023-04-22T08:02:07;100473.80;;;27.09;100.00
47983;BME280;33751;50.816;-1.214;2023-04-22T08:04:34;100471.83;;;27.70;100.00
47983;BME280;33751;50.816;-1.214;2023-04-22T08:07:01;100463.23;;;27.83;100.00
47983;BME280;33751;50.816;-1.214;2023-04-22T08:09:28;100466.85;;;27.96;100.00
47983;BME280;33751;50.816;-1.214;2023-04-22T08:11:55;100465.42;;;28.12;100.00
47983;BME280;33751;50.816;-1.214;2023-04-22T08:14:22;100459.92;;;28.53;100.00
47983;BME280;33751;50.816;-1.214;2023-04-22T08:16:51;100459.86;;;29.26;100.00
47983;BME280;33751;50.816;-1.214;2023-04-22T08:19:19;100460.90;;;29.04;100.00
47983;BME280;33751;50.816;-1.214;2023-04-22T08:21:45;100457.75;;;29.52;100.00
47983;BME280;33751;50.816;-1.214;2023-04-22T08:24:12;100454.42;;;29.05;100.00
47983;BME280;33751;50.816;-1.214;2023-04-22T08:26:39;100453.17;;;28.87;100.00
47983;BME280;33751;50.816;-1.214;2023-04-22T08:29:07;100451.24;;;29.81;100.00
47983;BME280;33751;50.816;-1.214;2023-04-22T08:31:33;100447.65;;;30.38;100.00
47983;BME280;33751;50.816;-1.214;2023-04-22T08:34:00;100447.18;;;29.65;100.00
47983;BME280;33751;50.816;-1.214;2023-04-22T08:36:26;100448.12;;;29.64;100.00
47983;BME280;33751;50.816;-1.214;2023-04-22T08:38:54;100448.76;;;29.99;100.00
47983;BME280;33751;50.816;-1.214;2023-04-22T08:41:22;100449.13;;;29.39;100.00
47983;BME280;33751;50.816;-1.214;2023-04-22T08:43:48;100452.90;;;29.52;100.00
47983;BME280;33751;50.816;-1.214;2023-04-22T08:46:16;100447.76;;;29.60;100.00
47983;BME280;33751;50.816;-1.214;2023-04-22T08:48:45;100444.19;;;29.12;100.00
47983;BME280;33751;50.816;-1.214;2023-04-22T08:51:13;100443.21;;;29.28;100.00
47983;BME280;33751;50.816;-1.214;2023-04-22T08:53:42;100448.42;;;29.48;100.00
47983;BME280;33751;50.816;-1.214;2023-04-22T08:56:10;100444.01;;;29.31;100.00
47983;BME280;33751;50.816;-1.214;2023-04-22T08:58:38;100445.30;;;28.62;100.00
47983;BME280;33751;50.816;-1.214;2023-04-22T09:01:06;100443.65;;;28.59;100.00
47983;BME280;33751;50.816;-1.214;2023-04-22T09:03:34;100436.73;;;29.79;100.00
47983;BME280;33751;50.816;-1.214;2023-04-22T09:06:03;100433.17;;;29.81;100.00
47983;BME280;33751;50.816;-1.214;2023-04-22T09:08:30;100437.27;;;29.04;100.00
47983;BME280;33751;50.816;-1.214;2023-04-22T09:10:58;100435.07;;;29.98;100.00
47983;BME280;33751;50.816;-1.214;2023-04-22T09:13:25;100442.53;;;29.18;100.00
47983;BME280;33751;50.816;-1.214;2023-04-22T09:15:53;100435.36;;;29.66;100.00
47983;BME280;33751;50.816;-1.214;2023-04-22T09:18:20;100439.81;;;29.07;100.00
47983;BME280;33751;50.816;-1.214;2023-04-22T09:20:48;100439.69;;;29.27;100.00
47983;BME280;33751;50.816;-1.214;2023-04-22T09:23:15;100441.26;;;29.07;100.00
47983;BME280;33751;50.816;-1.214;2023-04-22T09:25:44;100441.86;;;28.81;100.00
47983;BME280;33751;50.816;-1.214;2023-04-22T09:28:15;100442.86;;;29.28;100.00
47983;BME280;33751;50.816;-1.214;2023-04-22T09:30:44;100440.67;;;29.66;100.00
47983;BME280;33751;50.816;-1.214;2023-04-22T09:33:11;100439.73;;;29.74;100.00
47983;BME280;33751;50.816;-1.214;2023-04-22T09:35:40;100440.94;;;29.28;100.00
47983;BME280;33751;50.816;-1.214;2023-04-22T09:38:09;100443.53;;;29.15;100.00
47983;BME280;33751;50.816;-1.214;2023-04-22T09:40:37;100441.36;;;29.79;100.00
47983;BME280;33751;50.816;-1.214;2023-04-22T09:43:08;100442.42;;;29.53;100.00
47983;BME280;33751;50.816;-1.214;2023-04-22T09:45:37;100440.74;;;29.56;100.00
47983;BME280;33751;50.816;-1.214;2023-04-22T09:48:06;100442.39;;;29.54;100.00
47983;BME280;33751;50.816;-1.214;2023-04-22T09:50:35;100446.50;;;29.24;100.00
47983;BME280;33751;50.816;-1.214;2023-04-22T09:53:05;100443.86;;;28.97;100.00
47983;BME280;33751;50.816;-1.214;2023-04-22T09:55:33;100445.72;;;29.20;100.00
47983;BME280;33751;50.816;-1.214;2023-04-22T09:58:05;100443.92;;;28.70;100.00
47983;BME280;33751;50.816;-1.214;2023-04-22T10:00:34;100446.35;;;28.49;100.00
47983;BME280;33751;50.816;-1.214;2023-04-22T10:03:01;100450.48;;;28.66;100.00
47983;BME280;33751;50.816;-1.214;2023-04-22T10:05:28;100452.21;;;28.75;100.00
47983;BME280;33751;50.816;-1.214;2023-04-22T10:07:55;100451.48;;;28.63;100.00
47983;BME280;33751;50.816;-1.214;2023-04-22T10:10:22;100452.26;;;28.50;100.00
47983;BME280;33751;50.816;-1.214;2023-04-22T10:12:50;100452.06;;;28.40;100.00
47983;BME280;33751;50.816;-1.214;2023-04-22T10:15:18;100452.67;;;28.35;100.00
47983;BME280;33751;50.816;-1.214;2023-04-22T10:17:45;100453.02;;;28.62;100.00
47983;BME280;33751;50.816;-1.214;2023-04-22T10:20:15;100455.40;;;28.61;100.00
47983;BME280;33751;50.816;-1.214;2023-04-22T10:22:43;100453.87;;;28.38;100.00
47983;BME280;33751;50.816;-1.214;2023-04-22T10:25:12;100456.66;;;28.42;100.00
47983;BME280;33751;50.816;-1.214;2023-04-22T10:27:39;100455.71;;;28.51;100.00
47983;BME280;33751;50.816;-1.214;2023-04-22T10:30:08;100455.39;;;28.53;100.00
47983;BME280;33751;50.816;-1.214;2023-04-22T10:32:35;100455.99;;;28.83;100.00
47983;BME280;33751;50.816;-1.214;2023-04-22T10:35:09;100454.69;;;28.68;100.00
47983;BME280;33751;50.816;-1.214;2023-04-22T10:37:36;100452.90;;;28.60;100.00
47983;BME280;33751;50.816;-1.214;2023-04-22T10:40:09;100450.11;;;28.71;100.00
47983;BME280;33751;50.816;-1.214;2023-04-22T10:42:38;100451.12;;;28.23;100.00
47983;BME280;33751;50.816;-1.214;2023-04-22T10:45:06;100451.98;;;28.39;100.00
47983;BME280;33751;50.816;-1.214;2023-04-22T10:47:35;100450.69;;;28.37;100.00
47983;BME280;33751;50.816;-1.214;2023-04-22T10:50:20;100452.85;;;28.21;100.00
47983;BME280;33751;50.816;-1.214;2023-04-22T10:52:49;100450.87;;;28.14;100.00
47983;BME280;33751;50.816;-1.214;2023-04-22T10:55:18;100451.33;;;28.16;100.00
47983;BME280;33751;50.816;-1.214;2023-04-22T10:57:47;100450.52;;;28.07;100.00
47983;BME280;33751;50.816;-1.214;2023-04-22T11:00:20;100453.78;;;28.19;100.00
47983;BME280;33751;50.816;-1.214;2023-04-22T11:02:51;100455.19;;;27.97;100.00
47983;BME280;33751;50.816;-1.214;2023-04-22T11:05:21;100459.69;;;27.64;100.00
47983;BME280;33751;50.816;-1.214;2023-04-22T11:07:49;100460.73;;;27.81;100.00
47983;BME280;33751;50.816;-1.214;2023-04-22T11:10:50;100460.80;;;27.75;100.00
47983;BME280;33751;50.816;-1.214;2023-04-22T11:13:19;100463.03;;;27.60;100.00
47983;BME280;33751;50.816;-1.214;2023-04-22T11:15:48;100468.53;;;27.92;100.00
47983;BME280;33751;50.816;-1.214;2023-04-22T11:18:19;100469.33;;;27.35;100.00
47983;BME280;33751;50.816;-1.214;2023-04-22T11:20:46;100472.65;;;27.23;100.00
47983;BME280;33751;50.816;-1.214;2023-04-22T11:23:17;100474.82;;;27.39;100.00
47983;BME280;33751;50.816;-1.214;2023-04-22T11:25:45;100476.04;;;26.98;100.00
47983;BME280;33751;50.816;-1.214;2023-04-22T11:28:12;100481.19;;;26.92;100.00
47983;BME280;33751;50.816;-1.214;2023-04-22T11:30:39;100480.74;;;27.41;100.00
47983;BME280;33751;50.816;-1.214;2023-04-22T11:33:06;100481.08;;;26.99;100.00
47983;BME280;33751;50.816;-1.214;2023-04-22T11:35:34;100485.50;;;27.05;100.00
47983;BME280;33751;50.816;-1.214;2023-04-22T11:38:01;100486.47;;;27.10;100.00
47983;BME280;33751;50.816;-1.214;2023-04-22T11:40:30;100487.19;;;27.13;100.00
47983;BME280;33751;50.816;-1.214;2023-04-22T11:42:59;100482.16;;;27.34;100.00
47983;BME280;33751;50.816;-1.214;2023-04-22T11:45:28;100483.74;;;27.22;100.00
47983;BME280;33751;50.816;-1.214;2023-04-22T11:47:54;100486.43;;;27.18;100.00
47983;BME280;33751;50.816;-1.214;2023-04-22T11:50:22;100487.34;;;26.79;100.00
47983;BME280;33751;50.816;-1.214;2023-04-22T11:52:51;100484.30;;;26.79;100.00
47983;BME280;33751;50.816;-1.214;2023-04-22T11:55:21;100482.77;;;27.60;100.00
47983;BME280;33751;50.816;-1.214;2023-04-22T11:57:54;100484.64;;;27.29;100.00
47983;BME280;33751;50.816;-1.214;2023-04-22T12:00:23;100482.88;;;27.31;100.00
47983;BME280;33751;50.816;-1.214;2023-04-22T12:02:58;100488.94;;;27.47;100.00
47983;BME280;33751;50.816;-1.214;2023-04-22T12:05:35;100491.82;;;27.42;100.00
47983;BME280;33751;50.816;-1.214;2023-04-22T12:08:03;100485.68;;;27.51;100.00
47983;BME280;33751;50.816;-1.214;2023-04-22T12:10:32;100485.58;;;27.59;100.00
47983;BME280;33751;50.816;-1.214;2023-04-22T12:12:59;100489.69;;;27.76;100.00
47983;BME280;33751;50.816;-1.214;2023-04-22T12:15:26;100492.31;;;27.40;100.00
47983;BME280;33751;50.816;-1.214;2023-04-22T12:18:02;100488.76;;;27.23;100.00
47983;BME280;33751;50.816;-1.214;2023-04-22T12:20:31;100486.27;;;27.53;100.00
47983;BME280;33751;50.816;-1.214;2023-04-22T12:22:58;100492.78;;;27.34;100.00
47983;BME280;33751;50.816;-1.214;2023-04-22T12:25:25;100492.41;;;27.49;100.00
47983;BME280;33751;50.816;-1.214;2023-04-22T12:27:52;100491.92;;;27.30;100.00
47983;BME280;33751;50.816;-1.214;2023-04-22T12:30:19;100494.75;;;27.20;100.00
47983;BME280;33751;50.816;-1.214;2023-04-22T12:32:46;100494.21;;;27.37;100.00